createdAt,value
2019-03-18T00:02:30.381Z,2.90
2019-03-18T00:05:01.099Z,2.90
2019-03-18T00:07:31.678Z,2.90
2019-03-18T00:10:02.277Z,2.90
2019-03-18T00:12:32.883Z,2.90
2019-03-18T00:15:03.494Z,3.00
2019-03-18T00:17:34.086Z,2.90
2019-03-18T00:20:04.748Z,2.90
2019-03-18T00:22:35.309Z,2.90
2019-03-18T00:25:06.001Z,2.80
2019-03-18T00:27:36.943Z,2.80
2019-03-18T00:30:09.876Z,2.60
2019-03-18T00:32:40.466Z,2.40
2019-03-18T00:35:11.285Z,2.30
2019-03-18T00:37:41.895Z,2.20
2019-03-18T00:40:13.650Z,2.10
2019-03-18T00:42:44.271Z,2.00
2019-03-18T00:45:15.827Z,2.00
2019-03-18T00:47:46.662Z,1.90
2019-03-18T00:50:17.250Z,1.90
2019-03-18T00:52:47.864Z,1.90
2019-03-18T00:55:18.487Z,1.80
2019-03-18T00:57:49.093Z,1.80
2019-03-18T01:00:19.699Z,1.70
2019-03-18T01:02:50.352Z,1.60
2019-03-18T01:05:20.980Z,1.60
2019-03-18T01:07:51.597Z,1.50
2019-03-18T01:10:22.181Z,1.40
2019-03-18T01:12:52.900Z,1.40
2019-03-18T01:15:28.266Z,1.30
2019-03-18T01:17:55.868Z,1.30
2019-03-18T01:20:26.436Z,1.30
2019-03-18T01:22:57.006Z,1.20
2019-03-18T01:25:27.629Z,1.20
2019-03-18T01:27:58.226Z,1.20
2019-03-18T01:30:28.953Z,1.20
2019-03-18T01:32:59.537Z,1.20
2019-03-18T01:35:30.146Z,1.20
2019-03-18T01:38:00.715Z,1.10
2019-03-18T01:40:31.290Z,1.10
2019-03-18T01:43:01.892Z,1.10
2019-03-18T01:45:40.643Z,1.10
2019-03-18T01:48:04.800Z,1.10
2019-03-18T01:50:35.404Z,1.10
2019-03-18T01:53:06.072Z,1.10
2019-03-18T01:55:36.671Z,1.10
2019-03-18T01:58:07.282Z,1.00
2019-03-18T02:00:38.141Z,1.10
2019-03-18T02:03:08.749Z,1.10
2019-03-18T02:05:39.467Z,1.10
2019-03-18T02:08:10.112Z,1.00
2019-03-18T02:10:40.693Z,1.00
2019-03-18T02:13:11.338Z,0.90
2019-03-18T02:15:52.874Z,0.80
2019-03-18T02:18:14.647Z,0.80
2019-03-18T02:20:45.266Z,0.80
2019-03-18T02:23:15.950Z,0.80
2019-03-18T02:25:46.507Z,0.80
2019-03-18T02:28:17.137Z,0.70
2019-03-18T02:30:47.714Z,0.60
2019-03-18T02:33:18.370Z,0.60
2019-03-18T02:35:48.983Z,0.70
2019-03-18T02:38:19.549Z,0.60
2019-03-18T02:40:50.186Z,0.70
2019-03-18T02:43:20.779Z,0.80
2019-03-18T02:45:51.373Z,0.80
2019-03-18T02:48:22.097Z,0.90
2019-03-18T02:50:52.680Z,0.90
2019-03-18T02:53:23.250Z,1.00
2019-03-18T02:55:53.867Z,1.10
2019-03-18T02:58:24.472Z,1.20
2019-03-18T03:00:55.276Z,1.30
2019-03-18T03:03:25.868Z,1.30
2019-03-18T03:05:56.512Z,1.40
2019-03-18T03:08:27.183Z,1.40
2019-03-18T03:10:57.982Z,1.50
2019-03-18T03:13:28.584Z,1.50
2019-03-18T03:15:59.177Z,1.50
2019-03-18T03:18:30.020Z,1.60
2019-03-18T03:21:00.616Z,1.60
2019-03-18T03:23:31.270Z,1.60
2019-03-18T03:26:01.878Z,1.70
2019-03-18T03:28:32.452Z,1.60
2019-03-18T03:31:03.069Z,1.70
2019-03-18T03:33:33.673Z,1.80
2019-03-18T03:36:04.277Z,1.80
2019-03-18T03:38:34.877Z,1.80
2019-03-18T03:41:05.531Z,1.80
2019-03-18T03:43:36.097Z,1.90
2019-03-18T03:46:06.761Z,1.90
2019-03-18T03:48:37.309Z,1.90
2019-03-18T03:51:07.915Z,1.90
2019-03-18T03:53:38.502Z,2.00
2019-03-18T03:56:09.115Z,2.10
2019-03-18T03:58:39.672Z,2.00
2019-03-18T04:01:10.318Z,2.00
2019-03-18T04:03:40.923Z,2.00
2019-03-18T04:06:11.714Z,2.00
2019-03-18T04:08:42.302Z,2.00
2019-03-18T04:11:13.021Z,2.10
2019-03-18T04:13:43.610Z,2.00
2019-03-18T04:16:14.162Z,2.00
2019-03-18T04:18:44.745Z,2.00
2019-03-18T04:21:15.390Z,2.00
2019-03-18T04:23:45.989Z,2.00
2019-03-18T04:26:16.622Z,2.00
2019-03-18T04:28:47.223Z,2.00
2019-03-18T04:31:17.788Z,2.00
2019-03-18T04:33:48.367Z,2.10
2019-03-18T04:36:18.977Z,2.10
2019-03-18T04:38:49.617Z,2.20
2019-03-18T04:41:20.216Z,2.20
2019-03-18T04:43:50.849Z,2.20
2019-03-18T04:46:21.429Z,2.20
2019-03-18T04:48:52.041Z,2.20
2019-03-18T04:51:22.599Z,2.30
2019-03-18T04:53:53.242Z,2.30
2019-03-18T04:56:23.859Z,2.30
2019-03-18T04:58:54.418Z,2.30
2019-03-18T05:01:25.021Z,2.30
2019-03-18T05:03:55.629Z,2.20
2019-03-18T05:06:26.236Z,2.20
2019-03-18T05:08:56.783Z,2.20
2019-03-18T05:11:27.378Z,2.20
2019-03-18T05:13:58.150Z,2.10
2019-03-18T05:16:28.855Z,2.00
2019-03-18T05:18:59.480Z,2.00
2019-03-18T05:21:30.058Z,1.90
2019-03-18T05:24:00.678Z,1.90
2019-03-18T05:26:31.282Z,1.90
2019-03-18T05:29:01.852Z,2.00
2019-03-18T05:31:32.518Z,2.00
2019-03-18T05:34:03.121Z,2.10
2019-03-18T05:36:33.744Z,2.10
2019-03-18T05:39:05.535Z,2.10
2019-03-18T05:41:36.208Z,2.10
2019-03-18T05:44:08.088Z,2.20
2019-03-18T05:46:38.869Z,2.10
2019-03-18T05:49:09.426Z,2.10
2019-03-18T05:51:40.017Z,2.10
2019-03-18T05:54:10.594Z,2.20
2019-03-18T05:56:41.215Z,2.20
2019-03-18T05:59:11.786Z,2.20
2019-03-18T06:01:42.415Z,2.30
2019-03-18T06:04:13.006Z,2.30
2019-03-18T06:06:43.594Z,2.30
2019-03-18T06:09:14.158Z,2.40
2019-03-18T06:11:44.755Z,2.50
2019-03-18T06:14:15.319Z,2.60
2019-03-18T06:16:45.902Z,2.60
2019-03-18T06:19:17.743Z,2.70
2019-03-18T06:21:48.372Z,2.70
2019-03-18T06:24:18.942Z,2.80
2019-03-18T06:26:49.585Z,2.70
2019-03-18T06:29:20.291Z,2.80
2019-03-18T06:31:50.865Z,2.80
2019-03-18T06:34:21.560Z,2.80
2019-03-18T06:36:52.181Z,2.80
2019-03-18T06:39:22.787Z,2.80
2019-03-18T06:41:53.394Z,2.90
2019-03-18T06:44:24.055Z,2.90
2019-03-18T06:46:54.682Z,2.90
2019-03-18T06:49:25.303Z,2.90
2019-03-18T06:51:55.905Z,2.90
2019-03-18T06:54:26.899Z,3.00
2019-03-18T06:56:57.531Z,3.00
2019-03-18T06:59:28.159Z,2.90
2019-03-18T07:01:59.029Z,3.00
2019-03-18T07:04:29.599Z,3.10
2019-03-18T07:07:00.234Z,3.20
2019-03-18T07:09:30.925Z,3.30
2019-03-18T07:12:01.588Z,3.30
2019-03-18T07:14:32.191Z,3.30
2019-03-18T07:17:02.784Z,3.30
2019-03-18T07:19:33.404Z,3.30
2019-03-18T07:22:04.008Z,3.30
2019-03-18T07:24:34.584Z,3.30
2019-03-18T07:27:05.277Z,3.30
2019-03-18T07:29:35.888Z,3.30
2019-03-18T07:32:09.785Z,3.30
2019-03-18T07:34:40.408Z,3.30
2019-03-18T07:37:10.986Z,3.20
2019-03-18T07:39:41.641Z,3.30
2019-03-18T07:42:12.307Z,3.20
2019-03-18T07:44:43.272Z,3.20
2019-03-18T07:47:13.843Z,3.20
2019-03-18T07:49:44.488Z,3.20
2019-03-18T07:52:15.107Z,3.30
2019-03-18T07:54:45.729Z,3.20
2019-03-18T07:57:16.320Z,3.30
2019-03-18T07:59:47.290Z,3.30
2019-03-18T08:02:17.855Z,3.30
2019-03-18T08:04:48.586Z,3.30
2019-03-18T08:07:19.192Z,3.40
2019-03-18T08:09:49.804Z,3.50
2019-03-18T08:12:20.379Z,3.50
2019-03-18T08:14:51.022Z,3.50
2019-03-18T08:17:21.618Z,3.60
2019-03-18T08:19:52.226Z,3.70
2019-03-18T08:22:22.873Z,3.80
2019-03-18T08:24:53.448Z,4.00
2019-03-18T08:27:24.089Z,4.40
2019-03-18T08:29:54.709Z,4.60
2019-03-18T08:32:25.378Z,5.10
2019-03-18T08:34:56.103Z,5.50
2019-03-18T08:37:26.719Z,5.60
2019-03-18T08:39:57.290Z,5.50
2019-03-18T08:42:27.919Z,5.30
2019-03-18T08:44:58.527Z,5.30
2019-03-18T08:47:29.171Z,5.10
2019-03-18T08:49:59.779Z,5.10
2019-03-18T08:52:30.401Z,5.70
2019-03-18T08:55:01.247Z,6.00
2019-03-18T08:57:34.329Z,6.20
2019-03-18T09:00:05.853Z,6.80
2019-03-18T09:02:36.540Z,7.20
2019-03-18T09:05:07.697Z,7.60
2019-03-18T09:07:38.395Z,7.20
2019-03-18T09:10:09.826Z,7.40
2019-03-18T09:12:40.435Z,7.20
2019-03-18T09:15:11.244Z,7.00
2019-03-18T09:17:41.861Z,6.90
2019-03-18T09:20:12.749Z,7.60
2019-03-18T09:22:43.362Z,7.20
2019-03-18T09:25:14.646Z,6.70
2019-03-18T09:27:45.274Z,7.00
2019-03-18T09:30:16.062Z,6.90
2019-03-18T09:32:46.653Z,6.50
2019-03-18T09:35:17.705Z,6.80
2019-03-18T09:37:48.335Z,7.20
2019-03-18T09:40:18.964Z,7.20
2019-03-18T09:42:49.551Z,7.30
2019-03-18T09:45:20.161Z,7.00
2019-03-18T09:47:50.798Z,6.40
2019-03-18T09:50:21.384Z,6.30
2019-03-18T09:52:52.025Z,7.30
2019-03-18T09:55:22.659Z,7.50
2019-03-18T09:57:53.255Z,7.80
2019-03-18T10:00:23.890Z,7.80
2019-03-18T10:02:54.464Z,7.00
2019-03-18T10:05:25.123Z,7.50
2019-03-18T10:07:55.786Z,8.50
2019-03-18T10:10:26.898Z,8.90
2019-03-18T10:12:57.521Z,8.70
2019-03-18T10:15:28.102Z,9.30
2019-03-18T10:17:58.717Z,9.60
2019-03-18T10:20:29.267Z,8.70
2019-03-18T10:23:02.800Z,8.40
2019-03-18T10:25:32.304Z,8.80
2019-03-18T10:28:02.915Z,9.20
2019-03-18T10:30:34.064Z,9.40
2019-03-18T10:33:04.800Z,9.30
2019-03-18T10:35:35.386Z,9.20
2019-03-18T10:38:06.039Z,9.60
2019-03-18T10:40:36.628Z,9.90
2019-03-18T10:43:07.264Z,10.30
2019-03-18T10:45:37.901Z,10.30
2019-03-18T10:48:08.575Z,10.30
2019-03-18T10:50:39.171Z,10.60
2019-03-18T10:53:09.826Z,10.70
2019-03-18T10:55:40.447Z,10.70
2019-03-18T10:58:11.013Z,10.60
2019-03-18T11:00:41.661Z,10.80
2019-03-18T11:03:12.247Z,11.10
2019-03-18T11:05:43.112Z,11.30
2019-03-18T11:08:13.771Z,11.00
2019-03-18T11:10:44.412Z,10.10
2019-03-18T11:13:15.200Z,9.80
2019-03-18T11:15:45.837Z,10.00
2019-03-18T11:18:16.425Z,10.00
2019-03-18T11:20:47.143Z,10.30
2019-03-18T11:23:17.829Z,10.80
2019-03-18T11:25:48.458Z,10.70
2019-03-18T11:28:19.076Z,11.40
2019-03-18T11:30:49.718Z,11.90
2019-03-18T11:33:20.331Z,11.00
2019-03-18T11:35:52.002Z,10.80
2019-03-18T11:38:22.667Z,10.40
2019-03-18T11:40:53.328Z,10.30
2019-03-18T11:43:23.914Z,9.90
2019-03-18T11:45:54.693Z,9.60
2019-03-18T11:48:25.352Z,9.50
2019-03-18T11:50:55.945Z,9.40
2019-03-18T11:53:26.655Z,9.20
2019-03-18T11:55:57.278Z,9.40
2019-03-18T11:58:27.890Z,9.20
2019-03-18T12:00:58.551Z,9.20
2019-03-18T12:03:29.183Z,8.80
2019-03-18T12:05:59.812Z,9.00
2019-03-18T12:08:30.431Z,8.80
2019-03-18T12:11:01.074Z,8.50
2019-03-18T12:13:31.742Z,8.40
2019-03-18T12:16:02.362Z,8.40
2019-03-18T12:18:33.103Z,8.30
2019-03-18T12:21:03.734Z,8.20
2019-03-18T12:23:34.496Z,8.30
2019-03-18T12:26:05.212Z,8.00
2019-03-18T12:28:35.774Z,8.20
2019-03-18T12:31:06.402Z,8.20
2019-03-18T12:33:37.562Z,7.70
2019-03-18T12:36:08.187Z,7.60
2019-03-18T12:38:38.940Z,7.60
2019-03-18T12:41:09.674Z,7.90
2019-03-18T12:43:40.352Z,8.20
2019-03-18T12:46:10.966Z,8.10
2019-03-18T12:48:41.600Z,7.80
2019-03-18T12:51:12.156Z,7.50
2019-03-18T12:53:42.745Z,7.80
2019-03-18T12:56:13.408Z,7.70
2019-03-18T12:58:44.026Z,7.40
2019-03-18T13:01:14.624Z,7.30
2019-03-18T13:03:45.280Z,7.30
2019-03-18T13:06:15.960Z,7.50
2019-03-18T13:08:46.586Z,7.40
2019-03-18T13:11:18.960Z,6.90
2019-03-18T13:13:49.610Z,7.00
2019-03-18T13:16:20.225Z,7.10
2019-03-18T13:18:50.858Z,7.10
2019-03-18T13:21:21.504Z,7.10
2019-03-18T13:23:52.110Z,7.60
2019-03-18T13:26:22.794Z,8.10
2019-03-18T13:28:53.415Z,8.10
2019-03-18T13:31:24.088Z,8.30
2019-03-18T13:33:54.722Z,7.90
2019-03-18T13:36:25.733Z,8.00
2019-03-18T13:38:56.320Z,7.60
2019-03-18T13:41:27.080Z,7.60
2019-03-18T13:43:57.734Z,7.30
2019-03-18T13:46:28.393Z,7.30
2019-03-18T13:48:59.045Z,7.30
2019-03-18T13:51:29.675Z,7.40
2019-03-18T13:54:00.317Z,7.70
2019-03-18T13:56:30.956Z,8.20
2019-03-18T13:59:01.556Z,8.20
2019-03-18T14:01:32.140Z,8.20
2019-03-18T14:04:02.811Z,8.10
2019-03-18T14:06:33.489Z,8.10
2019-03-18T14:09:04.514Z,7.90
2019-03-18T14:11:35.123Z,8.30
2019-03-18T14:14:05.757Z,8.50
2019-03-18T14:16:36.329Z,8.40
2019-03-18T14:19:07.091Z,8.30
2019-03-18T14:21:37.692Z,8.20
2019-03-18T14:24:08.285Z,8.00
2019-03-18T14:26:38.901Z,7.80
2019-03-18T14:29:09.509Z,7.70
2019-03-18T14:31:40.106Z,7.70
2019-03-18T14:34:11.375Z,7.90
2019-03-18T14:36:41.972Z,8.00
2019-03-18T14:39:12.560Z,8.10
2019-03-18T14:41:43.155Z,8.20
2019-03-18T14:44:13.847Z,8.00
2019-03-18T14:46:44.410Z,7.90
2019-03-18T14:49:15.162Z,8.10
2019-03-18T14:51:46.304Z,8.00
2019-03-18T14:54:17.069Z,8.00
2019-03-18T14:56:47.775Z,8.00
2019-03-18T14:59:18.391Z,7.90
2019-03-18T15:01:48.971Z,7.90
2019-03-18T15:04:19.859Z,7.90
2019-03-18T15:06:50.460Z,7.80
2019-03-18T15:09:21.149Z,7.70
2019-03-18T15:11:51.802Z,7.00
2019-03-18T15:14:22.379Z,6.00
2019-03-18T15:16:53.054Z,5.50
2019-03-18T15:19:23.674Z,5.10
2019-03-18T15:21:58.685Z,4.90
2019-03-18T15:24:26.797Z,4.60
2019-03-18T15:26:57.545Z,4.50
2019-03-18T15:29:28.179Z,4.60
2019-03-18T15:31:59.141Z,4.80
2019-03-18T15:34:30.458Z,4.70
2019-03-18T15:37:01.061Z,4.80
2019-03-18T15:39:31.688Z,4.70
2019-03-18T15:42:02.391Z,4.50
2019-03-18T15:44:33.049Z,4.50
2019-03-18T15:47:03.686Z,4.40
2019-03-18T15:49:34.385Z,4.30
2019-03-18T15:52:11.102Z,4.30
2019-03-18T15:54:37.460Z,4.40
2019-03-18T15:57:08.206Z,4.40
2019-03-18T15:59:38.834Z,4.20
2019-03-18T16:02:09.573Z,4.10
2019-03-18T16:04:40.276Z,4.10
2019-03-18T16:07:10.952Z,4.10
2019-03-18T16:09:41.574Z,4.20
2019-03-18T16:12:12.471Z,4.20
2019-03-18T16:14:43.110Z,4.10
2019-03-18T16:17:13.751Z,4.00
2019-03-18T16:19:44.441Z,3.90
2019-03-18T16:22:23.524Z,3.90
2019-03-18T16:24:47.532Z,3.90
2019-03-18T16:27:18.470Z,3.90
2019-03-18T16:29:49.139Z,3.90
2019-03-18T16:32:19.939Z,4.00
2019-03-18T16:34:50.561Z,4.20
2019-03-18T16:37:21.392Z,4.30
2019-03-18T16:39:52.104Z,4.20
2019-03-18T16:42:22.738Z,4.20
2019-03-18T16:44:53.412Z,4.10
2019-03-18T16:47:24.031Z,4.10
2019-03-18T16:49:54.946Z,4.00
2019-03-18T16:52:35.216Z,4.10
2019-03-18T16:54:58.048Z,4.10
2019-03-18T16:57:28.681Z,4.10
2019-03-18T16:59:59.339Z,4.20
2019-03-18T17:02:29.980Z,4.40
2019-03-18T17:05:00.593Z,4.40
2019-03-18T17:07:31.513Z,4.50
2019-03-18T17:10:02.191Z,4.40
2019-03-18T17:12:32.852Z,4.40
2019-03-18T17:15:03.619Z,4.20
2019-03-18T17:17:34.302Z,4.10
2019-03-18T17:20:05.693Z,3.90
2019-03-18T17:22:48.038Z,3.90
2019-03-18T17:25:12.532Z,3.70
2019-03-18T17:27:43.212Z,3.70
2019-03-18T17:30:16.887Z,3.70
2019-03-18T17:32:47.570Z,3.50
2019-03-18T17:35:18.416Z,3.30
2019-03-18T17:37:49.072Z,3.30
2019-03-18T17:40:20.241Z,3.30
2019-03-18T17:42:51.003Z,3.10
2019-03-18T17:45:21.648Z,3.10
2019-03-18T17:47:52.283Z,2.90
2019-03-18T17:50:22.981Z,2.70
2019-03-18T17:53:02.899Z,2.60
2019-03-18T17:55:28.644Z,2.60
2019-03-18T17:57:59.337Z,2.50
2019-03-18T18:00:34.874Z,2.40
2019-03-18T18:03:05.488Z,2.30
2019-03-18T18:05:36.101Z,2.30
2019-03-18T18:08:06.777Z,2.30
2019-03-18T18:10:37.465Z,2.30
2019-03-18T18:13:08.186Z,2.20
2019-03-18T18:15:39.860Z,2.30
2019-03-18T18:18:11.398Z,2.30
2019-03-18T18:20:42.162Z,2.30
2019-03-18T18:23:18.402Z,2.20
2019-03-18T18:25:49.237Z,2.20
2019-03-18T18:28:19.880Z,2.20
2019-03-18T18:30:50.497Z,2.10
2019-03-18T18:33:21.130Z,2.10
2019-03-18T18:35:51.796Z,2.10
2019-03-18T18:38:22.510Z,2.20
2019-03-18T18:40:53.202Z,2.20
2019-03-18T18:43:23.812Z,2.10
2019-03-18T18:45:54.494Z,2.10
2019-03-18T18:48:25.149Z,2.10
2019-03-18T18:50:55.844Z,2.00
2019-03-18T18:53:26.941Z,2.00
2019-03-18T18:55:57.775Z,1.90
2019-03-18T18:58:28.480Z,1.90
2019-03-18T19:00:59.295Z,1.80
2019-03-18T19:03:29.977Z,1.80
2019-03-18T19:08:33.345Z,1.70
2019-03-18T19:11:04.059Z,1.70
2019-03-18T19:13:34.732Z,1.60
2019-03-18T19:16:05.567Z,1.50
2019-03-18T19:18:38.038Z,1.50
2019-03-18T19:21:08.712Z,1.40
2019-03-18T19:23:39.433Z,1.50
2019-03-18T19:26:10.314Z,1.40
2019-03-18T19:28:40.980Z,1.40
2019-03-18T19:31:11.818Z,1.30
2019-03-18T19:33:42.455Z,1.30
2019-03-18T19:36:13.162Z,1.20
2019-03-18T19:38:43.781Z,1.10
2019-03-18T19:41:14.824Z,1.10
2019-03-18T19:43:45.501Z,1.10
2019-03-18T19:46:16.424Z,1.20
2019-03-18T19:48:47.286Z,1.20
2019-03-18T19:51:18.706Z,1.10
2019-03-18T19:53:49.742Z,1.20
2019-03-18T19:56:24.959Z,1.10
2019-03-18T19:58:55.893Z,1.10
2019-03-18T20:01:27.296Z,1.10
2019-03-18T20:03:58.416Z,1.10
2019-03-18T20:06:29.470Z,1.10
2019-03-18T20:09:00.234Z,1.10
2019-03-18T20:11:31.260Z,1.00
2019-03-18T20:14:01.945Z,1.00
2019-03-18T20:16:32.880Z,1.00
2019-03-18T20:19:03.601Z,0.90
2019-03-18T20:21:34.329Z,1.00
2019-03-18T20:24:05.041Z,0.90
2019-03-18T20:26:35.776Z,0.90
2019-03-18T20:29:06.656Z,0.80
2019-03-18T20:31:38.441Z,0.90
2019-03-18T20:34:09.171Z,0.90
2019-03-18T20:36:39.870Z,0.90
2019-03-18T20:39:10.584Z,0.90
2019-03-18T20:41:41.353Z,0.90
2019-03-18T20:44:13.180Z,0.80
2019-03-18T20:46:43.922Z,0.80
2019-03-18T20:49:16.983Z,0.80
2019-03-18T20:51:46.994Z,0.80
2019-03-18T20:54:17.708Z,0.70
2019-03-18T20:56:49.126Z,0.70
2019-03-18T20:59:19.872Z,0.70
2019-03-18T21:01:50.711Z,0.70
2019-03-18T21:04:21.508Z,0.60
2019-03-18T21:06:52.183Z,0.60
2019-03-18T21:09:22.902Z,0.70
2019-03-18T21:11:53.566Z,0.70
2019-03-18T21:14:24.312Z,0.70
2019-03-18T21:16:54.968Z,0.70
2019-03-18T21:19:25.699Z,0.70
2019-03-18T21:21:56.441Z,0.80
2019-03-18T21:24:27.144Z,0.90
2019-03-18T21:26:57.875Z,0.80
2019-03-18T21:29:28.580Z,0.90
2019-03-18T21:31:59.273Z,0.80
2019-03-18T21:34:29.951Z,0.90
2019-03-18T21:37:00.786Z,0.90
2019-03-18T21:39:31.467Z,0.70
2019-03-18T21:42:02.177Z,0.70
2019-03-18T21:44:32.826Z,0.60
2019-03-18T21:47:03.515Z,0.60
2019-03-18T21:49:34.181Z,0.50
2019-03-18T21:52:05.168Z,0.50
2019-03-18T21:54:35.857Z,0.50
2019-03-18T21:57:06.733Z,0.60
2019-03-18T21:59:37.343Z,0.60
2019-03-18T22:02:08.230Z,0.70
2019-03-18T22:04:38.973Z,0.80
2019-03-18T22:07:09.682Z,0.70
2019-03-18T22:09:40.394Z,0.70
2019-03-18T22:12:11.060Z,0.70
2019-03-18T22:14:41.698Z,0.70
2019-03-18T22:17:12.384Z,0.60
2019-03-18T22:19:43.169Z,0.70
2019-03-18T22:22:13.864Z,0.70
2019-03-18T22:24:45.732Z,0.80
2019-03-18T22:27:16.574Z,0.80
2019-03-18T22:29:47.391Z,0.90
2019-03-18T22:32:18.025Z,0.90
2019-03-18T22:34:48.716Z,1.00
2019-03-18T22:37:19.469Z,1.10
2019-03-18T22:39:50.111Z,1.10
2019-03-18T22:42:20.754Z,1.10
2019-03-18T22:44:51.365Z,1.10
2019-03-18T22:47:22.006Z,1.10
2019-03-18T22:49:52.676Z,1.20
2019-03-18T22:52:23.485Z,1.20
2019-03-18T22:54:56.134Z,1.20
2019-03-18T22:57:26.568Z,1.20
2019-03-18T22:59:57.204Z,1.20
2019-03-18T23:02:27.881Z,1.20
2019-03-18T23:04:58.553Z,1.20
2019-03-18T23:07:29.231Z,1.10
2019-03-18T23:10:00.053Z,1.10
2019-03-18T23:12:30.704Z,1.10
2019-03-18T23:15:01.362Z,1.00
2019-03-18T23:17:32.068Z,1.00
2019-03-18T23:20:02.886Z,1.00
2019-03-18T23:22:33.585Z,0.90
2019-03-18T23:25:07.711Z,0.90
2019-03-18T23:27:36.692Z,0.90
2019-03-18T23:30:07.955Z,0.80
2019-03-18T23:32:38.606Z,0.80
2019-03-18T23:35:10.812Z,0.70
2019-03-18T23:37:41.482Z,0.70
2019-03-18T23:40:12.321Z,0.60
2019-03-18T23:42:42.943Z,0.60
2019-03-18T23:45:13.951Z,0.50
2019-03-18T23:47:44.601Z,0.40
2019-03-18T23:50:15.276Z,0.40
2019-03-18T23:52:45.891Z,0.30
2019-03-18T23:55:19.528Z,0.30
2019-03-18T23:57:48.898Z,0.30
